createdAt,value
2022-09-30T00:01:20.354Z,98883.78
2022-09-30T00:03:50.380Z,98856.84
2022-09-30T00:06:17.279Z,98878.56
2022-09-30T00:08:43.935Z,98879.94
2022-09-30T00:11:18.687Z,98881.63
2022-09-30T00:13:47.919Z,98890.56
2022-09-30T00:16:15.750Z,98898.06
2022-09-30T00:18:43.637Z,98898.25
2022-09-30T00:21:12.303Z,98899.53
2022-09-30T00:23:40.151Z,98903.81
2022-09-30T00:26:12.186Z,98872.00
2022-09-30T00:28:40.305Z,98892.16
2022-09-30T00:31:11.126Z,98898.81
2022-09-30T00:33:37.987Z,98896.75
2022-09-30T00:36:05.077Z,98824.84
2022-09-30T00:38:31.737Z,98889.69
2022-09-30T00:40:59.715Z,98829.16
2022-09-30T00:43:53.695Z,98884.00
2022-09-30T00:46:29.819Z,98890.31
2022-09-30T00:48:58.316Z,98879.69
2022-09-30T00:51:32.875Z,98888.09
2022-09-30T00:54:08.873Z,98887.59
2022-09-30T00:56:41.092Z,98891.88
2022-09-30T00:59:16.378Z,98891.00
2022-09-30T01:01:43.817Z,98908.19
2022-09-30T01:04:16.488Z,98905.69
2022-09-30T01:06:43.961Z,98904.06
2022-09-30T01:09:11.408Z,98904.41
2022-09-30T01:11:38.187Z,98874.56
2022-09-30T01:14:15.852Z,98877.69
2022-09-30T01:16:50.988Z,98898.13
2022-09-30T01:19:40.273Z,98892.75
2022-09-30T01:22:28.150Z,98896.78
2022-09-30T01:25:24.300Z,98902.88
2022-09-30T01:28:25.376Z,98847.97
2022-09-30T01:31:29.567Z,98910.06
2022-09-30T01:34:02.246Z,98913.69
2022-09-30T01:36:47.561Z,98927.34
2022-09-30T01:39:59.092Z,98925.91
2022-09-30T01:42:31.787Z,98913.13
2022-09-30T01:45:03.805Z,98886.56
2022-09-30T01:47:48.484Z,98922.03
2022-09-30T01:50:44.418Z,98922.91
2022-09-30T01:53:15.862Z,98941.28
2022-09-30T01:55:53.378Z,98934.91
2022-09-30T01:58:32.991Z,98935.22
2022-09-30T02:01:06.153Z,98945.25
2022-09-30T02:03:37.486Z,98949.84
2022-09-30T02:06:08.604Z,98888.59
2022-09-30T02:08:47.357Z,98943.25
2022-09-30T02:11:20.181Z,98945.09
2022-09-30T02:13:52.974Z,98944.63
2022-09-30T02:16:39.846Z,98949.97
2022-09-30T02:19:18.133Z,98952.72
2022-09-30T02:21:55.366Z,98970.19
2022-09-30T02:24:25.274Z,98972.53
2022-09-30T02:26:56.778Z,98962.38
2022-09-30T02:29:29.560Z,98927.66
2022-09-30T02:32:01.144Z,98976.91
2022-09-30T02:34:39.359Z,98973.44
2022-09-30T02:37:15.639Z,98986.00
2022-09-30T02:39:59.407Z,98979.91
2022-09-30T02:42:28.559Z,98978.09
2022-09-30T02:45:02.331Z,98981.78
2022-09-30T02:47:44.350Z,98977.84
2022-09-30T02:50:20.329Z,98947.69
2022-09-30T02:52:52.935Z,98980.03
2022-09-30T02:55:30.387Z,98973.03
2022-09-30T02:58:26.462Z,98978.22
2022-09-30T03:00:54.631Z,98989.28
2022-09-30T03:03:39.756Z,98997.84
2022-09-30T03:06:07.070Z,98997.47
2022-09-30T03:08:33.682Z,98888.72
2022-09-30T03:11:00.438Z,98973.13
2022-09-30T03:13:32.805Z,98977.28
2022-09-30T03:16:05.474Z,98977.38
2022-09-30T03:18:43.520Z,98982.56
2022-09-30T03:21:55.175Z,98986.75
2022-09-30T03:24:24.770Z,98990.22
2022-09-30T03:27:09.583Z,98982.94
2022-09-30T03:29:49.664Z,98964.16
2022-09-30T03:32:46.087Z,98912.63
2022-09-30T03:35:12.600Z,98987.75
2022-09-30T03:38:16.743Z,98993.50
2022-09-30T03:41:15.563Z,98992.94
2022-09-30T03:43:51.293Z,98971.41
2022-09-30T03:46:23.465Z,98992.75
2022-09-30T03:48:54.567Z,98994.06
2022-09-30T03:51:24.800Z,99002.06
2022-09-30T03:53:53.232Z,98966.06
2022-09-30T03:56:30.217Z,99016.44
2022-09-30T03:58:57.162Z,99016.63
2022-09-30T04:01:24.864Z,99000.09
2022-09-30T04:03:52.887Z,99021.97
2022-09-30T04:06:22.609Z,99030.16
2022-09-30T04:08:50.315Z,99032.03
2022-09-30T04:11:17.823Z,99037.13
2022-09-30T04:13:44.469Z,99016.72
2022-09-30T04:16:11.240Z,99031.31
2022-09-30T04:18:39.124Z,98990.88
2022-09-30T04:21:11.591Z,99041.31
2022-09-30T04:23:40.054Z,99041.97
2022-09-30T04:26:10.708Z,99039.50
2022-09-30T04:28:37.340Z,99039.00
2022-09-30T04:31:05.726Z,99035.09
2022-09-30T04:33:32.929Z,98971.41
2022-09-30T04:36:00.391Z,99054.91
2022-09-30T04:38:27.533Z,99063.84
2022-09-30T04:40:54.684Z,99049.00
2022-09-30T04:43:23.459Z,99046.88
2022-09-30T04:45:55.435Z,99065.97
2022-09-30T04:48:24.684Z,99063.09
2022-09-30T04:50:51.429Z,99047.81
2022-09-30T04:53:18.620Z,99055.81
2022-09-30T04:55:45.932Z,99062.56
2022-09-30T04:58:13.297Z,99044.84
2022-09-30T05:00:39.949Z,99051.84
2022-09-30T05:03:06.614Z,99062.81
2022-09-30T05:05:33.613Z,99057.50
2022-09-30T05:08:04.339Z,99061.19
2022-09-30T05:10:31.262Z,99067.75
2022-09-30T05:12:58.201Z,99073.56
2022-09-30T05:15:25.578Z,99076.56
2022-09-30T05:17:53.342Z,99081.59
2022-09-30T05:20:21.451Z,99088.94
2022-09-30T05:22:53.372Z,99091.56
2022-09-30T05:25:20.044Z,99077.06
2022-09-30T05:27:49.692Z,99081.53
2022-09-30T05:30:16.899Z,99085.06
2022-09-30T05:32:43.530Z,99082.09
2022-09-30T05:35:12.001Z,99093.97
2022-09-30T05:37:38.909Z,99100.59
2022-09-30T05:40:07.397Z,99104.84
2022-09-30T05:42:36.900Z,99099.78
2022-09-30T05:45:06.894Z,99002.22
2022-09-30T05:47:34.165Z,99085.34
2022-09-30T05:50:00.799Z,99097.63
2022-09-30T05:52:28.277Z,99079.38
2022-09-30T05:54:56.310Z,99117.41
2022-09-30T05:57:23.036Z,99123.94
2022-09-30T05:59:49.647Z,99124.78
2022-09-30T06:02:16.619Z,99120.22
2022-09-30T06:04:43.288Z,99129.53
2022-09-30T06:07:10.716Z,99137.00
2022-09-30T06:09:37.579Z,99127.78
2022-09-30T06:12:06.193Z,99141.28
2022-09-30T06:14:32.896Z,99136.38
2022-09-30T06:17:02.768Z,99146.31
2022-09-30T06:19:30.316Z,99129.38
2022-09-30T06:21:58.196Z,99148.59
2022-09-30T06:24:25.041Z,99163.34
2022-09-30T06:26:51.731Z,99161.16
2022-09-30T06:29:19.507Z,99160.78
2022-09-30T06:31:46.205Z,99170.34
2022-09-30T06:34:12.869Z,99159.44
2022-09-30T06:36:39.649Z,99164.78
2022-09-30T06:39:09.116Z,99176.09
2022-09-30T06:41:42.380Z,99179.00
2022-09-30T06:44:09.584Z,99200.69
2022-09-30T06:46:44.360Z,99185.56
2022-09-30T06:49:14.756Z,99178.25
2022-09-30T06:51:42.026Z,99190.19
2022-09-30T06:54:09.225Z,99176.34
2022-09-30T06:56:36.939Z,99192.22
2022-09-30T06:59:04.554Z,99196.13
2022-09-30T07:01:31.178Z,99174.16
2022-09-30T07:04:03.234Z,99169.75
2022-09-30T07:06:31.079Z,99184.66
2022-09-30T07:08:57.765Z,99155.69
2022-09-30T07:11:24.791Z,99106.19
2022-09-30T07:13:51.681Z,99177.88
2022-09-30T07:16:19.947Z,99184.00
2022-09-30T07:18:47.311Z,99128.47
2022-09-30T07:21:16.142Z,99166.59
2022-09-30T07:23:47.985Z,99178.81
2022-09-30T07:26:20.692Z,99178.97
2022-09-30T07:28:47.773Z,99160.53
2022-09-30T07:31:32.417Z,99188.78
2022-09-30T07:34:00.098Z,99178.91
2022-09-30T07:36:32.603Z,99196.69
2022-09-30T07:39:06.141Z,99163.88
2022-09-30T07:41:36.317Z,99192.09
2022-09-30T07:44:06.090Z,99217.34
2022-09-30T07:46:34.930Z,99214.78
2022-09-30T07:49:05.495Z,99214.22
2022-09-30T07:51:38.216Z,99221.56
2022-09-30T07:54:09.131Z,99216.91
2022-09-30T07:56:58.156Z,99200.06
2022-09-30T07:59:27.224Z,99209.63
2022-09-30T08:01:54.287Z,99224.56
2022-09-30T08:04:21.385Z,99235.31
2022-09-30T08:06:51.212Z,99203.63
2022-09-30T08:09:19.984Z,99209.31
2022-09-30T08:11:47.476Z,99222.34
2022-09-30T08:14:26.090Z,99217.63
2022-09-30T08:16:53.414Z,99233.41
2022-09-30T08:19:22.215Z,99242.03
2022-09-30T08:21:49.689Z,99229.97
2022-09-30T08:24:16.911Z,99226.16
2022-09-30T08:26:43.935Z,99233.97
2022-09-30T08:29:19.940Z,99240.63
2022-09-30T08:31:47.948Z,99271.47
2022-09-30T08:34:15.053Z,99259.78
2022-09-30T08:36:42.249Z,99266.44
2022-09-30T08:39:10.822Z,99250.91
2022-09-30T08:41:37.413Z,99245.88
2022-09-30T08:44:24.467Z,99253.88
2022-09-30T08:47:03.754Z,99261.91
2022-09-30T08:49:53.121Z,99241.31
2022-09-30T08:52:30.939Z,99261.97
2022-09-30T08:55:21.129Z,99250.03
2022-09-30T08:57:48.069Z,99267.34
2022-09-30T09:00:17.912Z,99263.31
2022-09-30T09:02:50.561Z,99265.75
2022-09-30T09:05:31.129Z,99275.41
2022-09-30T09:08:02.537Z,99279.66
2022-09-30T09:10:38.133Z,99286.81
2022-09-30T09:13:19.869Z,99289.06
2022-09-30T09:16:23.007Z,99290.78
2022-09-30T09:19:18.809Z,99288.94
2022-09-30T09:22:01.700Z,99289.06
2022-09-30T09:24:44.129Z,99267.16
2022-09-30T09:27:19.655Z,99279.56
2022-09-30T09:30:12.302Z,99288.19
2022-09-30T09:32:39.072Z,99213.31
2022-09-30T09:35:24.551Z,99276.78
2022-09-30T09:38:26.638Z,99222.91
2022-09-30T09:41:04.285Z,99257.72
2022-09-30T09:43:49.722Z,99279.47
2022-09-30T09:46:44.534Z,99272.44
2022-09-30T09:49:13.929Z,99274.94
2022-09-30T09:51:47.159Z,99280.41
2022-09-30T09:54:19.066Z,99226.56
2022-09-30T09:56:45.656Z,99298.53
2022-09-30T09:59:13.627Z,99300.91
2022-09-30T10:01:50.176Z,99284.28
2022-09-30T10:04:21.968Z,99287.59
2022-09-30T10:07:12.382Z,99288.22
2022-09-30T10:09:41.403Z,99297.47
2022-09-30T10:12:08.046Z,99304.72
2022-09-30T10:14:36.777Z,99306.53
2022-09-30T10:17:05.809Z,99310.44
2022-09-30T10:19:34.629Z,99308.06
2022-09-30T10:22:11.761Z,99309.31
2022-09-30T10:24:39.613Z,99302.84
2022-09-30T10:27:28.533Z,99301.34
2022-09-30T10:29:55.533Z,99256.91
2022-09-30T10:32:23.609Z,99290.56
2022-09-30T10:35:20.733Z,99299.59
2022-09-30T10:37:52.508Z,99246.41
2022-09-30T10:40:22.586Z,99258.81
2022-09-30T10:42:49.319Z,99302.97
2022-09-30T10:45:36.554Z,99291.53
2022-09-30T10:48:08.218Z,99304.41
2022-09-30T10:50:35.022Z,99299.13
2022-09-30T10:53:04.994Z,99312.91
2022-09-30T10:55:33.472Z,99308.63
2022-09-30T10:58:39.305Z,99311.09
2022-09-30T11:01:19.521Z,99302.91
2022-09-30T11:04:17.505Z,99309.78
2022-09-30T11:06:47.247Z,99278.19
2022-09-30T11:09:37.779Z,99322.16
2022-09-30T11:12:19.964Z,99312.56
2022-09-30T11:14:57.765Z,99298.44
2022-09-30T11:17:40.092Z,99324.47
2022-09-30T11:20:17.234Z,99320.41
2022-09-30T11:22:59.052Z,99308.91
2022-09-30T11:25:53.312Z,99295.53
2022-09-30T11:28:27.719Z,99260.34
2022-09-30T11:31:18.772Z,99311.00
2022-09-30T11:33:58.077Z,99312.94
2022-09-30T11:36:42.897Z,99306.47
2022-09-30T11:39:47.083Z,99311.34
2022-09-30T11:42:20.294Z,99321.66
2022-09-30T11:44:51.431Z,99275.78
2022-09-30T11:47:36.649Z,99308.06
2022-09-30T11:50:30.805Z,99309.69
2022-09-30T11:53:19.826Z,99326.19
2022-09-30T11:56:08.774Z,99317.56
2022-09-30T11:58:43.679Z,99321.72
2022-09-30T12:01:22.198Z,99322.56
2022-09-30T12:03:59.403Z,99303.59
2022-09-30T12:06:31.950Z,99314.59
2022-09-30T12:09:12.562Z,99302.75
2022-09-30T12:11:53.634Z,99311.03
2022-09-30T12:14:39.263Z,99272.34
2022-09-30T12:17:12.638Z,99293.13
2022-09-30T12:19:47.965Z,99261.31
2022-09-30T12:22:31.491Z,99271.72
2022-09-30T12:24:58.146Z,99289.16
2022-09-30T12:27:33.884Z,99225.88
2022-09-30T12:30:18.162Z,99293.03
2022-09-30T12:33:10.908Z,99296.38
2022-09-30T12:36:20.528Z,99286.84
2022-09-30T12:38:54.817Z,99301.84
2022-09-30T12:42:00.522Z,99304.31
2022-09-30T12:44:57.159Z,99305.59
2022-09-30T12:47:54.897Z,99285.59
2022-09-30T12:50:28.033Z,99281.78
2022-09-30T12:52:57.393Z,99311.56
2022-09-30T12:55:42.243Z,99295.09
2022-09-30T12:58:29.795Z,99301.13
2022-09-30T13:01:26.541Z,99301.09
2022-09-30T13:04:02.109Z,99302.41
2022-09-30T13:06:46.964Z,99304.66
2022-09-30T13:09:16.598Z,99306.09
2022-09-30T13:11:48.343Z,99305.56
2022-09-30T13:14:14.959Z,99303.91
2022-09-30T13:17:03.111Z,99309.03
2022-09-30T13:19:36.224Z,99305.84
2022-09-30T13:22:18.242Z,99311.22
2022-09-30T13:24:57.628Z,99310.75
2022-09-30T13:27:34.700Z,99316.69
2022-09-30T13:30:21.299Z,99305.28
2022-09-30T13:33:06.458Z,99285.16
2022-09-30T13:35:51.415Z,99324.88
2022-09-30T13:38:21.706Z,99315.91
2022-09-30T13:41:03.857Z,99315.03
2022-09-30T13:44:03.437Z,99310.59
2022-09-30T13:46:42.945Z,99294.97
2022-09-30T13:49:21.483Z,99324.41
2022-09-30T13:51:48.882Z,99316.06
2022-09-30T13:54:34.017Z,99303.78
2022-09-30T13:57:04.483Z,99318.06
2022-09-30T13:59:40.268Z,99318.56
2022-09-30T14:02:12.681Z,99318.84
2022-09-30T14:05:07.370Z,99322.44
2022-09-30T14:07:55.789Z,99334.19
2022-09-30T14:10:28.973Z,99330.59
2022-09-30T14:13:20.739Z,99325.22
2022-09-30T14:16:01.696Z,99320.34
2022-09-30T14:18:46.583Z,99319.69
2022-09-30T14:21:22.481Z,99313.19
2022-09-30T14:24:04.205Z,99335.44
2022-09-30T14:26:43.950Z,99306.34
2022-09-30T14:29:23.037Z,99314.97
2022-09-30T14:31:49.737Z,99260.94
2022-09-30T14:34:20.835Z,99288.66
2022-09-30T14:36:50.546Z,99276.13
2022-09-30T14:39:25.525Z,99284.34
2022-09-30T14:41:59.290Z,99296.16
2022-09-30T14:44:28.301Z,99285.44
2022-09-30T14:47:01.223Z,99284.94
2022-09-30T14:49:34.453Z,99293.84
2022-09-30T14:52:05.348Z,99307.97
2022-09-30T14:54:33.775Z,99274.41
2022-09-30T14:57:02.851Z,99309.91
2022-09-30T14:59:31.912Z,99286.50
2022-09-30T15:02:15.878Z,99246.78
2022-09-30T15:04:48.981Z,99299.50
2022-09-30T15:07:15.942Z,99307.00
2022-09-30T15:09:47.217Z,99293.44
2022-09-30T15:12:16.508Z,99311.84
2022-09-30T15:15:00.141Z,99304.88
2022-09-30T15:17:36.870Z,99293.59
2022-09-30T15:20:26.109Z,99279.09
2022-09-30T15:22:54.004Z,99240.09
2022-09-30T15:25:21.862Z,99264.25
2022-09-30T15:27:50.086Z,99275.31
2022-09-30T15:30:18.111Z,99303.25
2022-09-30T15:32:46.077Z,99266.63
2022-09-30T15:35:17.027Z,99299.69
2022-09-30T15:37:43.898Z,99306.16
2022-09-30T15:40:35.061Z,99319.84
2022-09-30T15:43:06.874Z,99293.88
2022-09-30T15:45:36.598Z,99235.28
2022-09-30T15:48:16.724Z,99313.78
2022-09-30T15:50:47.948Z,99313.63
2022-09-30T15:53:25.822Z,99249.59
2022-09-30T15:56:00.135Z,99320.16
2022-09-30T15:58:26.828Z,99319.13
2022-09-30T16:01:15.277Z,99311.88
2022-09-30T16:03:50.994Z,99308.47
2022-09-30T16:06:25.973Z,99277.19
2022-09-30T16:09:01.186Z,99292.72
2022-09-30T16:11:31.652Z,99311.13
2022-09-30T16:13:59.953Z,99292.38
2022-09-30T16:16:30.404Z,99289.09
2022-09-30T16:18:58.881Z,99257.09
2022-09-30T16:21:50.983Z,99302.69
2022-09-30T16:24:30.170Z,99311.06
2022-09-30T16:26:59.510Z,99309.34
2022-09-30T16:29:26.995Z,99306.91
2022-09-30T16:31:56.345Z,99309.81
2022-09-30T16:34:31.315Z,99294.81
2022-09-30T16:37:10.921Z,99305.81
2022-09-30T16:39:37.701Z,99246.75
2022-09-30T16:42:04.484Z,99291.97
2022-09-30T16:44:34.251Z,99298.94
2022-09-30T16:47:03.917Z,99297.16
2022-09-30T16:49:30.575Z,99294.13
2022-09-30T16:51:57.309Z,99277.41
2022-09-30T16:54:24.011Z,99260.25
2022-09-30T16:56:50.698Z,99218.53
2022-09-30T16:59:18.143Z,99281.00
2022-09-30T17:01:45.137Z,99255.81
2022-09-30T17:04:15.216Z,99282.78
2022-09-30T17:06:44.058Z,99260.63
2022-09-30T17:09:10.741Z,99268.16
2022-09-30T17:11:38.146Z,99297.00
2022-09-30T17:14:05.362Z,99299.34
2022-09-30T17:16:33.064Z,99289.25
2022-09-30T17:18:59.971Z,99293.88
2022-09-30T17:21:27.227Z,99307.88
2022-09-30T17:23:54.860Z,99305.06
2022-09-30T17:26:21.563Z,99287.22
2022-09-30T17:28:48.289Z,99302.16
2022-09-30T17:31:15.144Z,99312.81
2022-09-30T17:33:42.261Z,99320.75
2022-09-30T17:36:12.090Z,99320.22
2022-09-30T17:38:39.794Z,99306.16
2022-09-30T17:41:26.086Z,99333.97
2022-09-30T17:43:52.760Z,99180.88
2022-09-30T17:46:23.142Z,99318.06
2022-09-30T17:48:51.145Z,99325.88
2022-09-30T17:51:18.097Z,99317.31
2022-09-30T17:53:45.463Z,99317.31
2022-09-30T17:56:19.296Z,99344.69
2022-09-30T17:58:47.773Z,99348.16
2022-09-30T18:01:20.462Z,99354.13
2022-09-30T18:03:47.648Z,99287.94
2022-09-30T18:06:14.554Z,99340.22
2022-09-30T18:08:41.618Z,99361.31
2022-09-30T18:11:08.468Z,99356.00
2022-09-30T18:13:35.211Z,99365.16
2022-09-30T18:16:06.910Z,99369.63
2022-09-30T18:18:34.512Z,99371.25
2022-09-30T18:21:01.141Z,99269.44
2022-09-30T18:23:27.742Z,99363.84
2022-09-30T18:25:54.954Z,99338.09
2022-09-30T18:28:21.984Z,99355.22
2022-09-30T18:30:48.799Z,99371.75
2022-09-30T18:33:17.298Z,99364.16
2022-09-30T18:35:44.598Z,99388.72
2022-09-30T18:38:12.810Z,99380.13
2022-09-30T18:40:43.354Z,99378.41
2022-09-30T18:43:13.872Z,99395.59
2022-09-30T18:45:40.706Z,99402.13
2022-09-30T18:48:08.355Z,99373.69
2022-09-30T18:50:35.261Z,99394.31
2022-09-30T18:53:09.554Z,99360.53
2022-09-30T18:55:38.244Z,99426.16
2022-09-30T18:58:05.528Z,99413.63
2022-09-30T19:00:32.572Z,99399.41
2022-09-30T19:02:59.440Z,99434.56
2022-09-30T19:05:26.306Z,99417.56
2022-09-30T19:07:53.978Z,99422.06
2022-09-30T19:10:22.094Z,99432.75
2022-09-30T19:12:49.769Z,99370.34
2022-09-30T19:15:16.599Z,99398.94
2022-09-30T19:17:44.370Z,99410.03
2022-09-30T19:20:13.987Z,99397.47
2022-09-30T19:22:40.650Z,99400.28
2022-09-30T19:25:12.396Z,99375.91
2022-09-30T19:27:41.237Z,99393.38
2022-09-30T19:30:10.560Z,99376.31
2022-09-30T19:32:37.943Z,99379.88
2022-09-30T19:35:10.220Z,99374.69
2022-09-30T19:37:37.841Z,99360.00
2022-09-30T19:40:19.745Z,99319.84
2022-09-30T19:42:49.004Z,99306.13
2022-09-30T19:45:16.468Z,99347.59
2022-09-30T19:47:43.431Z,99337.06
2022-09-30T19:50:10.187Z,99354.69
2022-09-30T19:52:44.769Z,99328.81
2022-09-30T19:55:16.848Z,99370.56
2022-09-30T19:57:43.939Z,99245.59
2022-09-30T20:00:12.898Z,99376.22
2022-09-30T20:02:39.783Z,99376.34
2022-09-30T20:05:07.484Z,99390.59
2022-09-30T20:07:35.205Z,99348.34
2022-09-30T20:10:02.304Z,99359.56
2022-09-30T20:12:29.231Z,99360.75
2022-09-30T20:15:14.499Z,99374.50
2022-09-30T20:17:41.269Z,99374.94
2022-09-30T20:20:26.978Z,99355.66
2022-09-30T20:22:53.683Z,99395.03
2022-09-30T20:25:20.464Z,99398.75
2022-09-30T20:27:51.315Z,99407.50
2022-09-30T20:30:19.989Z,99376.97
2022-09-30T20:32:46.691Z,99382.66
2022-09-30T20:35:13.886Z,99401.97
2022-09-30T20:37:42.367Z,99398.69
2022-09-30T20:40:09.682Z,99365.81
2022-09-30T20:42:38.252Z,99390.69
2022-09-30T20:45:10.030Z,99366.84
2022-09-30T20:47:38.108Z,99401.03
2022-09-30T20:50:05.854Z,99404.13
2022-09-30T20:52:32.634Z,99428.13
2022-09-30T20:55:00.331Z,99426.94
2022-09-30T20:57:31.134Z,99433.13
2022-09-30T20:59:59.920Z,99441.03
2022-09-30T21:02:28.113Z,99429.47
2022-09-30T21:04:57.488Z,99428.00
2022-09-30T21:07:25.256Z,99440.78
2022-09-30T21:09:52.173Z,99383.56
2022-09-30T21:12:18.929Z,99372.53
2022-09-30T21:14:45.775Z,99363.31
2022-09-30T21:17:12.456Z,99449.91
2022-09-30T21:19:39.913Z,99439.88
2022-09-30T21:22:06.703Z,99424.19
2022-09-30T21:24:33.360Z,99401.56
2022-09-30T21:27:01.514Z,99427.59
2022-09-30T21:29:30.419Z,99436.72
2022-09-30T21:31:57.322Z,99477.06
2022-09-30T21:34:24.501Z,99436.81
2022-09-30T21:36:51.403Z,99416.75
2022-09-30T21:39:18.089Z,99465.41
2022-09-30T21:41:45.953Z,99471.81
2022-09-30T21:44:13.854Z,99464.53
2022-09-30T21:46:44.707Z,99467.31
2022-09-30T21:49:23.760Z,99461.81
2022-09-30T21:51:53.307Z,99429.56
2022-09-30T21:54:20.323Z,99438.06
2022-09-30T21:56:48.385Z,99450.66
2022-09-30T21:59:15.668Z,99450.44
2022-09-30T22:01:42.390Z,99443.72
2022-09-30T22:04:09.500Z,99451.47
2022-09-30T22:06:36.180Z,99343.38
2022-09-30T22:09:02.807Z,99378.00
2022-09-30T22:11:30.785Z,99444.47
2022-09-30T22:13:59.448Z,99446.78
2022-09-30T22:16:29.655Z,99447.38
2022-09-30T22:19:00.060Z,99441.81
2022-09-30T22:21:33.137Z,99444.63
2022-09-30T22:24:01.694Z,99455.53
2022-09-30T22:26:29.657Z,99418.41
2022-09-30T22:29:02.051Z,99439.78
2022-09-30T22:31:31.566Z,99394.78
2022-09-30T22:34:19.931Z,99450.44
2022-09-30T22:37:05.285Z,99422.81
2022-09-30T22:39:32.153Z,99417.44
2022-09-30T22:41:59.044Z,99441.75
2022-09-30T22:44:28.405Z,99436.16
2022-09-30T22:46:56.136Z,99428.97
2022-09-30T22:49:24.286Z,99435.06
2022-09-30T22:51:55.703Z,99430.53
2022-09-30T22:54:24.274Z,99445.06
2022-09-30T22:56:51.223Z,99408.91
2022-09-30T22:59:18.925Z,99435.38
2022-09-30T23:01:46.056Z,99451.50
2022-09-30T23:04:17.157Z,99438.66
2022-09-30T23:06:45.726Z,99430.06
2022-09-30T23:09:12.344Z,99431.75
2022-09-30T23:11:39.270Z,99413.19
2022-09-30T23:14:05.846Z,99409.22
2022-09-30T23:16:32.526Z,99428.13
2022-09-30T23:18:59.504Z,99429.28
2022-09-30T23:21:26.218Z,99436.72
2022-09-30T23:23:53.367Z,99419.91
2022-09-30T23:26:25.047Z,99440.94
2022-09-30T23:28:56.454Z,99449.16
2022-09-30T23:31:23.143Z,99409.56
2022-09-30T23:33:54.752Z,99416.13
2022-09-30T23:36:29.515Z,99446.41
2022-09-30T23:39:04.723Z,99450.16
2022-09-30T23:41:32.731Z,99429.06
2022-09-30T23:44:01.091Z,99432.84
2022-09-30T23:46:27.736Z,99435.03
2022-09-30T23:48:54.403Z,99334.19
2022-09-30T23:51:21.055Z,99426.56
2022-09-30T23:53:47.767Z,99431.94
2022-09-30T23:56:16.744Z,99420.78
2022-09-30T23:58:44.459Z,99423.41
